sensor_id;sensor_type;location;lat;lon;timestamp;pressure;altitude;pressure_sealevel;temperature;humidity
77877;BME280;67251;50.844;7.978;2023-02-28T00:00:43;100018.41;;;-6.22;88.05
77877;BME280;67251;50.844;7.978;2023-02-28T00:03:09;100020.66;;;-6.33;88.24
77877;BME280;67251;50.844;7.978;2023-02-28T00:05:34;100028.28;;;-6.29;88.54
77877;BME280;67251;50.844;7.978;2023-02-28T00:08:00;100022.66;;;-6.40;88.05
77877;BME280;67251;50.844;7.978;2023-02-28T00:10:28;100024.13;;;-6.53;88.17
77877;BME280;67251;50.844;7.978;2023-02-28T00:12:56;100015.38;;;-6.52;89.06
77877;BME280;67251;50.844;7.978;2023-02-28T00:15:24;100015.66;;;-6.58;89.01
77877;BME280;67251;50.844;7.978;2023-02-28T00:17:50;100022.94;;;-6.66;88.91
77877;BME280;67251;50.844;7.978;2023-02-28T00:20:16;100023.31;;;-6.76;89.26
77877;BME280;67251;50.844;7.978;2023-02-28T00:22:44;100020.91;;;-6.80;89.42
77877;BME280;67251;50.844;7.978;2023-02-28T00:25:15;100020.09;;;-6.82;89.97
77877;BME280;67251;50.844;7.978;2023-02-28T00:27:41;100017.09;;;-6.93;89.84
77877;BME280;67251;50.844;7.978;2023-02-28T00:30:13;100013.09;;;-7.02;89.71
77877;BME280;67251;50.844;7.978;2023-02-28T00:32:39;100017.00;;;-7.12;90.25
77877;BME280;67251;50.844;7.978;2023-02-28T00:35:06;100015.38;;;-7.15;90.32
77877;BME280;67251;50.844;7.978;2023-02-28T00:37:31;100010.47;;;-7.23;90.34
77877;BME280;67251;50.844;7.978;2023-02-28T00:39:57;100021.03;;;-7.27;90.54
77877;BME280;67251;50.844;7.978;2023-02-28T00:42:23;100022.31;;;-7.37;90.26
77877;BME280;67251;50.844;7.978;2023-02-28T00:44:48;100028.97;;;-7.52;90.51
77877;BME280;67251;50.844;7.978;2023-02-28T00:47:14;100032.06;;;-7.66;90.33
77877;BME280;67251;50.844;7.978;2023-02-28T00:49:39;100036.69;;;-7.74;90.68
77877;BME280;67251;50.844;7.978;2023-02-28T00:52:05;100031.50;;;-7.74;91.08
77877;BME280;67251;50.844;7.978;2023-02-28T00:54:30;100025.56;;;-7.54;90.92
77877;BME280;67251;50.844;7.978;2023-02-28T00:56:55;100029.41;;;-7.64;90.50
77877;BME280;67251;50.844;7.978;2023-02-28T00:59:21;100030.25;;;-7.64;90.80
77877;BME280;67251;50.844;7.978;2023-02-28T01:01:46;100029.41;;;-7.64;90.89
77877;BME280;67251;50.844;7.978;2023-02-28T01:04:13;100033.88;;;-7.68;91.04
77877;BME280;67251;50.844;7.978;2023-02-28T01:06:38;100024.72;;;-7.78;90.90
77877;BME280;67251;50.844;7.978;2023-02-28T01:09:05;100026.75;;;-7.86;90.84
77877;BME280;67251;50.844;7.978;2023-02-28T01:11:31;100025.16;;;-7.90;91.19
77877;BME280;67251;50.844;7.978;2023-02-28T01:13:57;100027.16;;;-7.97;91.00
77877;BME280;67251;50.844;7.978;2023-02-28T01:16:23;100028.13;;;-8.00;91.03
77877;BME280;67251;50.844;7.978;2023-02-28T01:18:48;100029.50;;;-7.91;91.88
77877;BME280;67251;50.844;7.978;2023-02-28T01:21:16;100024.22;;;-7.88;92.24
77877;BME280;67251;50.844;7.978;2023-02-28T01:23:42;100026.91;;;-7.91;91.90
77877;BME280;67251;50.844;7.978;2023-02-28T01:26:22;100031.75;;;-7.80;92.42
77877;BME280;67251;50.844;7.978;2023-02-28T01:28:49;100029.25;;;-7.83;92.17
77877;BME280;67251;50.844;7.978;2023-02-28T01:31:15;100028.31;;;-7.81;92.79
77877;BME280;67251;50.844;7.978;2023-02-28T01:33:41;100022.56;;;-7.67;92.56
77877;BME280;67251;50.844;7.978;2023-02-28T01:36:12;100023.50;;;-7.46;92.58
77877;BME280;67251;50.844;7.978;2023-02-28T01:38:38;100021.78;;;-7.24;92.27
77877;BME280;67251;50.844;7.978;2023-02-28T01:41:03;100012.38;;;-7.06;91.95
77877;BME280;67251;50.844;7.978;2023-02-28T01:46:16;100014.78;;;-6.79;90.61
77877;BME280;67251;50.844;7.978;2023-02-28T01:54:35;99995.41;;;-6.52;89.73
77877;BME280;67251;50.844;7.978;2023-02-28T01:57:05;99998.34;;;-6.39;89.12
77877;BME280;67251;50.844;7.978;2023-02-28T01:59:38;100004.63;;;-6.24;89.12
77877;BME280;67251;50.844;7.978;2023-02-28T02:02:17;99997.38;;;-6.18;88.48
77877;BME280;67251;50.844;7.978;2023-02-28T02:04:51;99997.91;;;-6.09;88.71
77877;BME280;67251;50.844;7.978;2023-02-28T02:07:18;99990.16;;;-6.11;88.61
77877;BME280;67251;50.844;7.978;2023-02-28T02:09:44;99990.56;;;-6.20;88.58
77877;BME280;67251;50.844;7.978;2023-02-28T02:12:27;99989.69;;;-6.39;88.63
77877;BME280;67251;50.844;7.978;2023-02-28T02:15:05;99986.09;;;-6.57;89.20
77877;BME280;67251;50.844;7.978;2023-02-28T02:17:40;99985.50;;;-6.64;89.59
77877;BME280;67251;50.844;7.978;2023-02-28T02:31:55;99981.75;;;-7.19;90.33
77877;BME280;67251;50.844;7.978;2023-02-28T02:42:41;99993.88;;;-7.20;89.77
77877;BME280;67251;50.844;7.978;2023-02-28T02:45:25;99988.28;;;-7.31;90.06
77877;BME280;67251;50.844;7.978;2023-02-28T02:47:54;99999.22;;;-7.45;90.19
77877;BME280;67251;50.844;7.978;2023-02-28T02:50:30;99999.56;;;-7.54;90.42
77877;BME280;67251;50.844;7.978;2023-02-28T02:52:59;99996.84;;;-7.51;90.45
77877;BME280;67251;50.844;7.978;2023-02-28T02:55:27;99994.13;;;-7.48;90.64
77877;BME280;67251;50.844;7.978;2023-02-28T02:58:03;99992.31;;;-7.46;90.35
77877;BME280;67251;50.844;7.978;2023-02-28T03:00:38;99990.56;;;-7.46;90.30
77877;BME280;67251;50.844;7.978;2023-02-28T03:03:08;99998.53;;;-7.50;90.06
77877;BME280;67251;50.844;7.978;2023-02-28T03:05:50;99997.94;;;-7.57;89.95
77877;BME280;67251;50.844;7.978;2023-02-28T03:08:16;99995.78;;;-7.69;90.35
77877;BME280;67251;50.844;7.978;2023-02-28T03:10:44;99992.25;;;-7.66;91.00
77877;BME280;67251;50.844;7.978;2023-02-28T03:13:34;99994.25;;;-7.51;90.57
77877;BME280;67251;50.844;7.978;2023-02-28T03:24:43;99991.75;;;-7.76;90.81
77877;BME280;67251;50.844;7.978;2023-02-28T03:27:23;99998.63;;;-7.75;90.75
77877;BME280;67251;50.844;7.978;2023-02-28T03:30:06;100000.75;;;-7.85;90.60
77877;BME280;67251;50.844;7.978;2023-02-28T03:33:11;99993.38;;;-7.97;90.97
77877;BME280;67251;50.844;7.978;2023-02-28T03:36:02;99989.53;;;-8.10;90.82
77877;BME280;67251;50.844;7.978;2023-02-28T03:39:01;99995.38;;;-8.04;91.10
77877;BME280;67251;50.844;7.978;2023-02-28T03:41:49;99996.88;;;-7.98;91.07
77877;BME280;67251;50.844;7.978;2023-02-28T03:44:25;99989.53;;;-8.10;90.72
77877;BME280;67251;50.844;7.978;2023-02-28T03:46:58;99994.13;;;-8.17;90.87
77877;BME280;67251;50.844;7.978;2023-02-28T03:49:32;100000.38;;;-8.23;91.11
77877;BME280;67251;50.844;7.978;2023-02-28T03:52:02;99998.34;;;-8.38;90.87
77877;BME280;67251;50.844;7.978;2023-02-28T03:54:32;99992.75;;;-8.51;90.81
77877;BME280;67251;50.844;7.978;2023-02-28T03:57:12;99996.56;;;-8.61;90.98
77877;BME280;67251;50.844;7.978;2023-02-28T03:59:45;99996.78;;;-8.42;91.55
77877;BME280;67251;50.844;7.978;2023-02-28T04:02:12;99994.78;;;-8.35;91.26
77877;BME280;67251;50.844;7.978;2023-02-28T04:04:38;99990.16;;;-8.27;91.10
77877;BME280;67251;50.844;7.978;2023-02-28T04:07:07;99991.91;;;-8.28;90.92
77877;BME280;67251;50.844;7.978;2023-02-28T04:09:34;99982.63;;;-8.35;90.59
77877;BME280;67251;50.844;7.978;2023-02-28T04:12:00;99984.28;;;-8.32;90.85
77877;BME280;67251;50.844;7.978;2023-02-28T04:14:26;99988.50;;;-8.30;90.94
77877;BME280;67251;50.844;7.978;2023-02-28T04:16:52;99983.31;;;-8.30;90.66
77877;BME280;67251;50.844;7.978;2023-02-28T04:19:18;99988.41;;;-8.27;90.91
77877;BME280;67251;50.844;7.978;2023-02-28T04:21:47;99991.19;;;-8.33;90.57
77877;BME280;67251;50.844;7.978;2023-02-28T04:24:15;99988.75;;;-8.36;90.49
77877;BME280;67251;50.844;7.978;2023-02-28T04:26:43;99989.69;;;-8.37;90.66
77877;BME280;67251;50.844;7.978;2023-02-28T04:29:10;99980.63;;;-8.27;90.96
77877;BME280;67251;50.844;7.978;2023-02-28T04:31:36;99983.81;;;-8.18;91.02
77877;BME280;67251;50.844;7.978;2023-02-28T04:34:02;99986.19;;;-8.14;90.77
77877;BME280;67251;50.844;7.978;2023-02-28T04:36:28;99995.97;;;-8.20;90.53
77877;BME280;67251;50.844;7.978;2023-02-28T04:38:54;99988.75;;;-8.36;90.14
77877;BME280;67251;50.844;7.978;2023-02-28T04:41:20;99990.78;;;-8.44;90.58
77877;BME280;67251;50.844;7.978;2023-02-28T04:43:45;99987.97;;;-8.38;90.99
77877;BME280;67251;50.844;7.978;2023-02-28T04:46:11;99989.78;;;-8.40;90.83
77877;BME280;67251;50.844;7.978;2023-02-28T04:48:38;99985.44;;;-8.39;90.94
77877;BME280;67251;50.844;7.978;2023-02-28T04:51:12;99997.78;;;-8.46;91.04
77877;BME280;67251;50.844;7.978;2023-02-28T04:53:39;99986.72;;;-8.51;91.19
77877;BME280;67251;50.844;7.978;2023-02-28T04:56:06;99990.31;;;-8.55;91.24
77877;BME280;67251;50.844;7.978;2023-02-28T04:58:33;99989.25;;;-8.50;91.60
77877;BME280;67251;50.844;7.978;2023-02-28T05:01:07;99996.28;;;-8.30;92.04
77877;BME280;67251;50.844;7.978;2023-02-28T05:03:39;99996.13;;;-8.25;91.41
77877;BME280;67251;50.844;7.978;2023-02-28T05:06:09;99995.19;;;-8.23;91.45
77877;BME280;67251;50.844;7.978;2023-02-28T05:08:34;99997.66;;;-8.19;91.56
77877;BME280;67251;50.844;7.978;2023-02-28T05:11:00;99999.56;;;-8.25;91.54
77877;BME280;67251;50.844;7.978;2023-02-28T05:13:27;100003.50;;;-8.13;91.74
77877;BME280;67251;50.844;7.978;2023-02-28T05:15:52;100008.69;;;-8.13;91.51
77877;BME280;67251;50.844;7.978;2023-02-28T05:18:17;100003.06;;;-8.26;91.31
77877;BME280;67251;50.844;7.978;2023-02-28T05:20:43;99998.84;;;-8.05;91.61
77877;BME280;67251;50.844;7.978;2023-02-28T05:23:11;99999.38;;;-7.95;91.69
77877;BME280;67251;50.844;7.978;2023-02-28T05:25:38;99995.81;;;-7.92;91.13
77877;BME280;67251;50.844;7.978;2023-02-28T05:28:03;100000.44;;;-8.01;91.12
77877;BME280;67251;50.844;7.978;2023-02-28T05:30:29;100004.69;;;-7.98;91.14
77877;BME280;67251;50.844;7.978;2023-02-28T05:32:55;100008.19;;;-7.99;90.99
77877;BME280;67251;50.844;7.978;2023-02-28T05:35:20;100004.38;;;-8.14;90.96
77877;BME280;67251;50.844;7.978;2023-02-28T05:37:46;100005.06;;;-8.32;91.30
77877;BME280;67251;50.844;7.978;2023-02-28T05:40:13;100007.88;;;-8.38;91.43
77877;BME280;67251;50.844;7.978;2023-02-28T05:42:38;100010.53;;;-8.40;91.77
77877;BME280;67251;50.844;7.978;2023-02-28T05:45:04;100009.03;;;-8.47;91.62
77877;BME280;67251;50.844;7.978;2023-02-28T05:47:30;100013.59;;;-8.54;92.03
77877;BME280;67251;50.844;7.978;2023-02-28T05:49:56;100013.38;;;-8.47;91.55
77877;BME280;67251;50.844;7.978;2023-02-28T05:52:21;100014.44;;;-8.53;91.41
77877;BME280;67251;50.844;7.978;2023-02-28T05:54:47;100014.75;;;-8.62;91.56
77877;BME280;67251;50.844;7.978;2023-02-28T05:57:13;100012.63;;;-8.76;91.43
77877;BME280;67251;50.844;7.978;2023-02-28T05:59:38;100019.50;;;-8.75;92.20
77877;BME280;67251;50.844;7.978;2023-02-28T06:02:06;100014.81;;;-8.64;92.44
77877;BME280;67251;50.844;7.978;2023-02-28T06:04:35;100016.94;;;-8.50;92.24
77877;BME280;67251;50.844;7.978;2023-02-28T06:07:01;100014.53;;;-8.56;92.19
77877;BME280;67251;50.844;7.978;2023-02-28T06:09:26;100019.78;;;-8.58;92.26
77877;BME280;67251;50.844;7.978;2023-02-28T06:11:52;100018.88;;;-8.57;92.17
77877;BME280;67251;50.844;7.978;2023-02-28T06:14:18;100015.34;;;-8.54;92.33
77877;BME280;67251;50.844;7.978;2023-02-28T06:16:45;100025.66;;;-8.51;92.17
77877;BME280;67251;50.844;7.978;2023-02-28T06:19:11;100012.75;;;-8.54;92.16
77877;BME280;67251;50.844;7.978;2023-02-28T06:21:36;100026.13;;;-8.40;92.51
77877;BME280;67251;50.844;7.978;2023-02-28T06:24:02;100027.94;;;-8.18;92.47
77877;BME280;67251;50.844;7.978;2023-02-28T06:26:28;100035.09;;;-8.02;91.84
77877;BME280;67251;50.844;7.978;2023-02-28T06:28:54;100030.19;;;-7.86;91.45
77877;BME280;67251;50.844;7.978;2023-02-28T06:31:20;100042.28;;;-7.61;90.36
77877;BME280;67251;50.844;7.978;2023-02-28T06:33:46;100031.63;;;-7.32;89.32
77877;BME280;67251;50.844;7.978;2023-02-28T06:36:13;100036.22;;;-7.16;89.02
77877;BME280;67251;50.844;7.978;2023-02-28T06:38:40;100032.22;;;-7.03;87.72
77877;BME280;67251;50.844;7.978;2023-02-28T06:41:06;100032.53;;;-6.89;87.35
77877;BME280;67251;50.844;7.978;2023-02-28T06:43:35;100033.84;;;-6.79;86.70
77877;BME280;67251;50.844;7.978;2023-02-28T06:46:02;100023.88;;;-6.69;86.07
77877;BME280;67251;50.844;7.978;2023-02-28T06:48:28;100039.72;;;-6.53;84.93
77877;BME280;67251;50.844;7.978;2023-02-28T06:53:29;100041.03;;;-6.23;83.28
77877;BME280;67251;50.844;7.978;2023-02-28T06:55:54;100040.44;;;-6.09;82.09
77877;BME280;67251;50.844;7.978;2023-02-28T06:58:19;100033.97;;;-6.00;81.81
77877;BME280;67251;50.844;7.978;2023-02-28T07:00:45;100042.34;;;-5.94;81.46
77877;BME280;67251;50.844;7.978;2023-02-28T07:03:12;100040.03;;;-5.81;80.84
77877;BME280;67251;50.844;7.978;2023-02-28T07:05:38;100042.84;;;-5.67;80.35
77877;BME280;67251;50.844;7.978;2023-02-28T07:08:05;100046.47;;;-5.50;79.91
77877;BME280;67251;50.844;7.978;2023-02-28T07:10:32;100029.19;;;-5.34;78.74
77877;BME280;67251;50.844;7.978;2023-02-28T07:12:58;100045.66;;;-5.15;77.87
77877;BME280;67251;50.844;7.978;2023-02-28T07:15:24;100041.41;;;-4.98;77.66
77877;BME280;67251;50.844;7.978;2023-02-28T07:17:49;100045.72;;;-4.80;76.50
77877;BME280;67251;50.844;7.978;2023-02-28T07:20:15;100047.91;;;-4.53;76.31
77877;BME280;67251;50.844;7.978;2023-02-28T07:22:41;100044.13;;;-4.30;75.46
77877;BME280;67251;50.844;7.978;2023-02-28T07:25:07;100044.31;;;-4.00;75.26
77877;BME280;67251;50.844;7.978;2023-02-28T07:27:33;100047.97;;;-3.70;74.58
77877;BME280;67251;50.844;7.978;2023-02-28T07:29:59;100038.97;;;-2.11;69.62
77877;BME280;67251;50.844;7.978;2023-02-28T07:32:27;100028.97;;;-1.06;66.44
77877;BME280;67251;50.844;7.978;2023-02-28T07:34:53;100033.41;;;-0.66;65.95
77877;BME280;67251;50.844;7.978;2023-02-28T07:37:18;100021.66;;;2.09;59.59
77877;BME280;67251;50.844;7.978;2023-02-28T07:39:43;100026.41;;;4.51;52.11
77877;BME280;67251;50.844;7.978;2023-02-28T07:42:11;100019.22;;;5.81;48.14
77877;BME280;67251;50.844;7.978;2023-02-28T07:44:40;100004.66;;;6.51;46.39
77877;BME280;67251;50.844;7.978;2023-02-28T07:47:08;100021.84;;;4.53;49.65
77877;BME280;67251;50.844;7.978;2023-02-28T07:49:37;100007.81;;;4.72;50.21
77877;BME280;67251;50.844;7.978;2023-02-28T07:52:04;100006.88;;;6.09;46.70
77877;BME280;67251;50.844;7.978;2023-02-28T07:54:30;99991.72;;;7.29;39.54
77877;BME280;67251;50.844;7.978;2023-02-28T07:56:55;99999.28;;;8.90;35.54
77877;BME280;67251;50.844;7.978;2023-02-28T07:59:21;99991.66;;;9.19;33.95
77877;BME280;67251;50.844;7.978;2023-02-28T08:01:46;99990.06;;;8.42;30.61
77877;BME280;67251;50.844;7.978;2023-02-28T08:04:11;100007.25;;;8.22;32.53
77877;BME280;67251;50.844;7.978;2023-02-28T08:06:37;100009.50;;;8.08;31.47
77877;BME280;67251;50.844;7.978;2023-02-28T08:09:02;99996.88;;;10.66;28.83
77877;BME280;67251;50.844;7.978;2023-02-28T08:11:28;99990.81;;;10.25;27.42
77877;BME280;67251;50.844;7.978;2023-02-28T08:13:54;99995.16;;;10.18;27.20
77877;BME280;67251;50.844;7.978;2023-02-28T08:16:19;99996.22;;;8.77;27.66
77877;BME280;67251;50.844;7.978;2023-02-28T08:18:48;99994.53;;;10.08;27.15
77877;BME280;67251;50.844;7.978;2023-02-28T08:21:14;99990.03;;;9.43;27.06
77877;BME280;67251;50.844;7.978;2023-02-28T08:23:40;99999.50;;;8.62;27.34
77877;BME280;67251;50.844;7.978;2023-02-28T08:26:05;100003.59;;;7.97;28.52
77877;BME280;67251;50.844;7.978;2023-02-28T08:28:32;100002.72;;;8.14;28.31
77877;BME280;67251;50.844;7.978;2023-02-28T08:30:57;99998.16;;;9.09;26.46
77877;BME280;67251;50.844;7.978;2023-02-28T08:33:24;100000.63;;;9.02;26.39
77877;BME280;67251;50.844;7.978;2023-02-28T08:35:55;99989.84;;;9.77;25.98
77877;BME280;67251;50.844;7.978;2023-02-28T08:38:21;100000.03;;;9.49;25.43
77877;BME280;67251;50.844;7.978;2023-02-28T08:40:47;100003.06;;;6.86;28.26
77877;BME280;67251;50.844;7.978;2023-02-28T08:43:12;100001.03;;;8.13;28.29
77877;BME280;67251;50.844;7.978;2023-02-28T08:45:39;99996.47;;;10.46;25.27
77877;BME280;67251;50.844;7.978;2023-02-28T08:48:04;99987.06;;;11.21;23.53
77877;BME280;67251;50.844;7.978;2023-02-28T08:50:30;99984.75;;;10.39;23.42
77877;BME280;67251;50.844;7.978;2023-02-28T08:52:55;100000.06;;;9.57;24.80
77877;BME280;67251;50.844;7.978;2023-02-28T08:55:20;99996.41;;;9.75;24.54
77877;BME280;67251;50.844;7.978;2023-02-28T08:57:46;99998.38;;;9.32;25.08
77877;BME280;67251;50.844;7.978;2023-02-28T09:00:12;99996.78;;;8.54;25.67
77877;BME280;67251;50.844;7.978;2023-02-28T09:02:39;100009.09;;;8.21;26.59
77877;BME280;67251;50.844;7.978;2023-02-28T09:05:05;99991.00;;;10.07;24.21
77877;BME280;67251;50.844;7.978;2023-02-28T09:07:31;100002.78;;;8.90;25.11
77877;BME280;67251;50.844;7.978;2023-02-28T09:09:56;100003.63;;;7.79;26.64
77877;BME280;67251;50.844;7.978;2023-02-28T09:12:26;100003.78;;;8.03;26.56
77877;BME280;67251;50.844;7.978;2023-02-28T09:14:53;99992.72;;;8.84;26.15
77877;BME280;67251;50.844;7.978;2023-02-28T09:17:19;99990.25;;;8.91;25.25
77877;BME280;67251;50.844;7.978;2023-02-28T09:19:44;100017.97;;;8.30;25.83
77877;BME280;67251;50.844;7.978;2023-02-28T09:22:10;99991.56;;;8.44;26.02
77877;BME280;67251;50.844;7.978;2023-02-28T09:24:37;100008.06;;;7.52;27.32
77877;BME280;67251;50.844;7.978;2023-02-28T09:27:03;100008.59;;;8.26;26.36
77877;BME280;67251;50.844;7.978;2023-02-28T09:29:28;100002.44;;;8.93;26.08
77877;BME280;67251;50.844;7.978;2023-02-28T09:31:54;100004.06;;;9.53;25.44
77877;BME280;67251;50.844;7.978;2023-02-28T09:34:19;100001.06;;;9.72;25.01
77877;BME280;67251;50.844;7.978;2023-02-28T09:36:45;100005.38;;;8.40;26.17
77877;BME280;67251;50.844;7.978;2023-02-28T09:39:11;100003.06;;;7.93;26.97
77877;BME280;67251;50.844;7.978;2023-02-28T09:41:43;100008.09;;;7.96;26.81
77877;BME280;67251;50.844;7.978;2023-02-28T09:47:34;100007.88;;;8.15;27.51
77877;BME280;67251;50.844;7.978;2023-02-28T09:52:53;100014.75;;;7.56;28.00
77877;BME280;67251;50.844;7.978;2023-02-28T09:55:33;100009.97;;;7.42;28.64
77877;BME280;67251;50.844;7.978;2023-02-28T09:58:02;100005.38;;;8.40;26.80
77877;BME280;67251;50.844;7.978;2023-02-28T10:00:39;99994.84;;;8.12;27.06
77877;BME280;67251;50.844;7.978;2023-02-28T10:03:28;100006.72;;;7.30;28.37
77877;BME280;67251;50.844;7.978;2023-02-28T10:11:15;100007.50;;;5.93;29.27
77877;BME280;67251;50.844;7.978;2023-02-28T10:16:17;100003.94;;;6.59;28.95
77877;BME280;67251;50.844;7.978;2023-02-28T10:18:48;99995.34;;;7.46;28.21
77877;BME280;67251;50.844;7.978;2023-02-28T10:21:21;99988.00;;;8.36;26.93
77877;BME280;67251;50.844;7.978;2023-02-28T10:23:48;99988.84;;;7.84;26.85
77877;BME280;67251;50.844;7.978;2023-02-28T10:26:17;99988.16;;;7.82;27.23
77877;BME280;67251;50.844;7.978;2023-02-28T10:28:42;99986.78;;;7.16;28.41
77877;BME280;67251;50.844;7.978;2023-02-28T10:31:15;99996.13;;;5.91;29.74
77877;BME280;67251;50.844;7.978;2023-02-28T10:33:42;99999.81;;;5.32;30.86
77877;BME280;67251;50.844;7.978;2023-02-28T10:36:10;100001.34;;;5.15;31.62
77877;BME280;67251;50.844;7.978;2023-02-28T10:38:39;100011.09;;;4.55;32.37
77877;BME280;67251;50.844;7.978;2023-02-28T10:41:13;100012.69;;;3.85;33.76
77877;BME280;67251;50.844;7.978;2023-02-28T10:43:41;100005.94;;;3.07;34.49
77877;BME280;67251;50.844;7.978;2023-02-28T10:48:44;100008.78;;;2.72;36.00
77877;BME280;67251;50.844;7.978;2023-02-28T10:51:12;100007.34;;;2.79;36.12
77877;BME280;67251;50.844;7.978;2023-02-28T10:53:48;100017.03;;;2.90;35.59
77877;BME280;67251;50.844;7.978;2023-02-28T10:56:19;99996.38;;;3.27;35.18
77877;BME280;67251;50.844;7.978;2023-02-28T10:59:08;99991.50;;;3.43;34.86
77877;BME280;67251;50.844;7.978;2023-02-28T11:01:47;99994.38;;;3.72;34.22
77877;BME280;67251;50.844;7.978;2023-02-28T11:06:44;100000.47;;;4.85;32.98
77877;BME280;67251;50.844;7.978;2023-02-28T11:09:31;99984.53;;;4.76;33.07
77877;BME280;67251;50.844;7.978;2023-02-28T11:11:58;99999.88;;;4.11;34.37
77877;BME280;67251;50.844;7.978;2023-02-28T11:14:32;99985.16;;;5.08;33.51
77877;BME280;67251;50.844;7.978;2023-02-28T11:17:24;99995.03;;;5.16;32.78
77877;BME280;67251;50.844;7.978;2023-02-28T11:19:53;100004.84;;;4.04;34.45
77877;BME280;67251;50.844;7.978;2023-02-28T11:22:20;99996.56;;;3.88;35.06
77877;BME280;67251;50.844;7.978;2023-02-28T11:24:50;100003.78;;;4.07;34.85
77877;BME280;67251;50.844;7.978;2023-02-28T11:27:45;99999.34;;;3.87;35.01
77877;BME280;67251;50.844;7.978;2023-02-28T11:32:49;100005.06;;;3.71;35.41
77877;BME280;67251;50.844;7.978;2023-02-28T11:35:31;100006.84;;;4.33;34.98
77877;BME280;67251;50.844;7.978;2023-02-28T11:38:00;100002.84;;;4.48;33.64
77877;BME280;67251;50.844;7.978;2023-02-28T11:40:31;100001.16;;;4.87;33.98
77877;BME280;67251;50.844;7.978;2023-02-28T11:46:02;99991.66;;;4.45;35.41
77877;BME280;67251;50.844;7.978;2023-02-28T11:51:24;99995.31;;;3.92;36.39
77877;BME280;67251;50.844;7.978;2023-02-28T11:54:12;100003.31;;;4.02;36.15
77877;BME280;67251;50.844;7.978;2023-02-28T11:56:57;100002.06;;;4.27;34.85
77877;BME280;67251;50.844;7.978;2023-02-28T12:04:56;99997.38;;;4.09;34.85
77877;BME280;67251;50.844;7.978;2023-02-28T12:10:36;99997.03;;;3.72;35.96
77877;BME280;67251;50.844;7.978;2023-02-28T12:13:32;99990.53;;;3.65;37.06
77877;BME280;67251;50.844;7.978;2023-02-28T12:18:56;99978.38;;;3.53;37.49
77877;BME280;67251;50.844;7.978;2023-02-28T12:21:55;99972.47;;;3.49;37.50
77877;BME280;67251;50.844;7.978;2023-02-28T12:24:51;99981.56;;;3.56;37.55
77877;BME280;67251;50.844;7.978;2023-02-28T12:27:22;99974.81;;;3.11;38.00
77877;BME280;67251;50.844;7.978;2023-02-28T12:29:57;99972.50;;;3.17;37.72
77877;BME280;67251;50.844;7.978;2023-02-28T12:32:29;99973.34;;;3.39;37.96
77877;BME280;67251;50.844;7.978;2023-02-28T12:35:01;99963.63;;;3.60;37.44
77877;BME280;67251;50.844;7.978;2023-02-28T12:37:33;99960.31;;;3.26;37.88
77877;BME280;67251;50.844;7.978;2023-02-28T12:40:06;99957.31;;;3.30;38.18
77877;BME280;67251;50.844;7.978;2023-02-28T12:42:53;99958.44;;;3.17;38.75
77877;BME280;67251;50.844;7.978;2023-02-28T12:45:25;99962.53;;;3.10;38.23
77877;BME280;67251;50.844;7.978;2023-02-28T12:47:57;99967.13;;;3.40;38.75
77877;BME280;67251;50.844;7.978;2023-02-28T12:50:26;99969.47;;;3.22;37.72
77877;BME280;67251;50.844;7.978;2023-02-28T12:53:21;99955.66;;;3.18;38.44
77877;BME280;67251;50.844;7.978;2023-02-28T12:58:35;99946.75;;;3.19;38.34
77877;BME280;67251;50.844;7.978;2023-02-28T13:06:45;99931.28;;;3.56;38.19
77877;BME280;67251;50.844;7.978;2023-02-28T13:09:18;99937.19;;;3.39;38.49
77877;BME280;67251;50.844;7.978;2023-02-28T13:11:48;99939.66;;;3.20;38.90
77877;BME280;67251;50.844;7.978;2023-02-28T13:14:36;99930.34;;;3.04;39.30
77877;BME280;67251;50.844;7.978;2023-02-28T13:25:01;99923.94;;;3.60;37.99
77877;BME280;67251;50.844;7.978;2023-02-28T13:27:35;99939.88;;;3.28;38.14
77877;BME280;67251;50.844;7.978;2023-02-28T13:38:57;99930.00;;;3.30;38.12
77877;BME280;67251;50.844;7.978;2023-02-28T13:44:07;99916.19;;;3.47;39.01
77877;BME280;67251;50.844;7.978;2023-02-28T13:46:35;99914.81;;;3.74;38.14
77877;BME280;67251;50.844;7.978;2023-02-28T13:51:48;99916.06;;;3.28;38.51
77877;BME280;67251;50.844;7.978;2023-02-28T14:00:43;99919.28;;;3.11;38.90
77877;BME280;67251;50.844;7.978;2023-02-28T14:06:26;99904.97;;;3.13;38.59
77877;BME280;67251;50.844;7.978;2023-02-28T14:08:59;99906.38;;;3.38;38.92
77877;BME280;67251;50.844;7.978;2023-02-28T14:11:34;99903.25;;;3.44;38.43
77877;BME280;67251;50.844;7.978;2023-02-28T14:14:01;99902.00;;;3.27;38.92
77877;BME280;67251;50.844;7.978;2023-02-28T14:16:44;99890.06;;;3.33;38.62
77877;BME280;67251;50.844;7.978;2023-02-28T14:19:23;99877.91;;;3.51;39.10
77877;BME280;67251;50.844;7.978;2023-02-28T14:25:18;99884.25;;;3.18;39.49
77877;BME280;67251;50.844;7.978;2023-02-28T14:30:57;99880.84;;;3.27;39.10
77877;BME280;67251;50.844;7.978;2023-02-28T14:33:42;99887.63;;;3.20;39.55
77877;BME280;67251;50.844;7.978;2023-02-28T14:36:32;99883.66;;;3.15;39.25
77877;BME280;67251;50.844;7.978;2023-02-28T14:39:03;99880.84;;;3.27;39.43
77877;BME280;67251;50.844;7.978;2023-02-28T14:41:32;99874.25;;;3.43;39.06
77877;BME280;67251;50.844;7.978;2023-02-28T14:44:19;99874.00;;;3.46;39.08
77877;BME280;67251;50.844;7.978;2023-02-28T14:46:48;99880.03;;;3.57;39.51
77877;BME280;67251;50.844;7.978;2023-02-28T14:49:25;99878.31;;;3.47;38.99
77877;BME280;67251;50.844;7.978;2023-02-28T14:52:14;99869.19;;;3.30;39.74
77877;BME280;67251;50.844;7.978;2023-02-28T14:54:41;99874.06;;;3.14;39.89
77877;BME280;67251;50.844;7.978;2023-02-28T14:57:21;99866.13;;;3.14;39.96
77877;BME280;67251;50.844;7.978;2023-02-28T14:59:57;99867.75;;;3.26;40.23
77877;BME280;67251;50.844;7.978;2023-02-28T15:02:24;99871.09;;;3.28;40.08
77877;BME280;67251;50.844;7.978;2023-02-28T15:07:34;99885.88;;;3.30;39.80
77877;BME280;67251;50.844;7.978;2023-02-28T15:10:18;99878.66;;;3.12;39.95
77877;BME280;67251;50.844;7.978;2023-02-28T15:12:55;99877.16;;;3.19;40.50
77877;BME280;67251;50.844;7.978;2023-02-28T15:15:34;99867.03;;;3.24;40.70
77877;BME280;67251;50.844;7.978;2023-02-28T15:18:02;99876.50;;;3.05;41.07
77877;BME280;67251;50.844;7.978;2023-02-28T15:20:32;99882.38;;;3.09;41.12
77877;BME280;67251;50.844;7.978;2023-02-28T15:23:01;99887.59;;;2.99;40.93